sensor_id;sensor_type;location;lat;lon;timestamp;P1;durP1;ratioP1;P2;durP2;ratioP2
679;SDS011;322;48.846;9.230;2022-09-02T00:02:11;9.80;;;8.87;;
679;SDS011;322;48.846;9.230;2022-09-02T00:04:40;9.57;;;8.27;;
679;SDS011;322;48.846;9.230;2022-09-02T00:07:07;9.83;;;8.93;;
679;SDS011;322;48.846;9.230;2022-09-02T00:09:36;8.90;;;8.10;;
679;SDS011;322;48.846;9.230;2022-09-02T00:12:04;8.20;;;7.60;;
679;SDS011;322;48.846;9.230;2022-09-02T00:14:32;8.80;;;8.03;;
679;SDS011;322;48.846;9.230;2022-09-02T00:17:01;8.90;;;8.03;;
679;SDS011;322;48.846;9.230;2022-09-02T00:19:29;10.10;;;9.20;;
679;SDS011;322;48.846;9.230;2022-09-02T00:21:56;10.27;;;9.37;;
679;SDS011;322;48.846;9.230;2022-09-02T00:24:25;9.80;;;9.00;;
679;SDS011;322;48.846;9.230;2022-09-02T00:26:53;9.63;;;8.50;;
679;SDS011;322;48.846;9.230;2022-09-02T00:29:20;9.97;;;9.17;;
679;SDS011;322;48.846;9.230;2022-09-02T00:31:47;9.33;;;8.47;;
679;SDS011;322;48.846;9.230;2022-09-02T00:34:13;10.73;;;9.83;;
679;SDS011;322;48.846;9.230;2022-09-02T00:36:40;9.47;;;8.67;;
679;SDS011;322;48.846;9.230;2022-09-02T00:39:07;9.53;;;8.60;;
679;SDS011;322;48.846;9.230;2022-09-02T00:41:35;10.33;;;9.40;;
679;SDS011;322;48.846;9.230;2022-09-02T00:44:06;10.03;;;9.23;;
679;SDS011;322;48.846;9.230;2022-09-02T00:46:35;9.50;;;8.77;;
679;SDS011;322;48.846;9.230;2022-09-02T00:49:03;9.70;;;8.90;;
679;SDS011;322;48.846;9.230;2022-09-02T00:51:33;9.43;;;8.67;;
679;SDS011;322;48.846;9.230;2022-09-02T00:54:04;10.00;;;9.20;;
679;SDS011;322;48.846;9.230;2022-09-02T00:56:32;10.00;;;9.10;;
679;SDS011;322;48.846;9.230;2022-09-02T00:59:02;10.30;;;9.40;;
679;SDS011;322;48.846;9.230;2022-09-02T01:01:30;10.17;;;9.37;;
679;SDS011;322;48.846;9.230;2022-09-02T01:03:57;10.20;;;9.37;;
679;SDS011;322;48.846;9.230;2022-09-02T01:06:25;10.30;;;9.40;;
679;SDS011;322;48.846;9.230;2022-09-02T01:08:57;10.00;;;9.10;;
679;SDS011;322;48.846;9.230;2022-09-02T01:11:29;9.33;;;8.50;;
679;SDS011;322;48.846;9.230;2022-09-02T01:14:03;10.80;;;9.90;;
679;SDS011;322;48.846;9.230;2022-09-02T01:16:34;10.13;;;9.10;;
679;SDS011;322;48.846;9.230;2022-09-02T01:19:07;10.30;;;9.40;;
679;SDS011;322;48.846;9.230;2022-09-02T01:21:43;10.13;;;9.23;;
679;SDS011;322;48.846;9.230;2022-09-02T01:24:11;9.60;;;8.60;;
679;SDS011;322;48.846;9.230;2022-09-02T01:26:39;9.20;;;8.40;;
679;SDS011;322;48.846;9.230;2022-09-02T01:29:05;10.27;;;9.37;;
679;SDS011;322;48.846;9.230;2022-09-02T01:31:32;10.10;;;9.10;;
679;SDS011;322;48.846;9.230;2022-09-02T01:33:59;9.23;;;8.50;;
679;SDS011;322;48.846;9.230;2022-09-02T01:36:27;11.77;;;10.20;;
679;SDS011;322;48.846;9.230;2022-09-02T01:38:55;9.30;;;8.40;;
679;SDS011;322;48.846;9.230;2022-09-02T01:41:22;9.83;;;9.10;;
679;SDS011;322;48.846;9.230;2022-09-02T01:43:48;8.67;;;7.97;;
679;SDS011;322;48.846;9.230;2022-09-02T01:46:15;9.93;;;9.03;;
679;SDS011;322;48.846;9.230;2022-09-02T01:48:43;10.73;;;9.73;;
679;SDS011;322;48.846;9.230;2022-09-02T01:51:13;10.27;;;9.47;;
679;SDS011;322;48.846;9.230;2022-09-02T01:53:41;9.40;;;8.60;;
679;SDS011;322;48.846;9.230;2022-09-02T01:56:10;8.97;;;8.23;;
679;SDS011;322;48.846;9.230;2022-09-02T01:58:36;9.60;;;8.80;;
679;SDS011;322;48.846;9.230;2022-09-02T02:01:03;10.00;;;9.07;;
679;SDS011;322;48.846;9.230;2022-09-02T02:03:30;11.23;;;10.13;;
679;SDS011;322;48.846;9.230;2022-09-02T02:05:57;10.60;;;9.70;;
679;SDS011;322;48.846;9.230;2022-09-02T02:08:25;9.37;;;8.53;;
679;SDS011;322;48.846;9.230;2022-09-02T02:10:51;9.90;;;9.00;;
679;SDS011;322;48.846;9.230;2022-09-02T02:13:19;10.63;;;9.73;;
679;SDS011;322;48.846;9.230;2022-09-02T02:15:46;10.03;;;9.13;;
679;SDS011;322;48.846;9.230;2022-09-02T02:18:13;9.80;;;8.83;;
679;SDS011;322;48.846;9.230;2022-09-02T02:20:41;9.60;;;8.80;;
679;SDS011;322;48.846;9.230;2022-09-02T02:23:08;10.10;;;9.20;;
679;SDS011;322;48.846;9.230;2022-09-02T02:25:35;11.23;;;10.33;;
679;SDS011;322;48.846;9.230;2022-09-02T02:28:02;9.77;;;8.97;;
679;SDS011;322;48.846;9.230;2022-09-02T02:30:30;9.90;;;9.10;;
679;SDS011;322;48.846;9.230;2022-09-02T02:32:57;10.10;;;9.13;;
679;SDS011;322;48.846;9.230;2022-09-02T02:35:24;9.33;;;8.63;;
679;SDS011;322;48.846;9.230;2022-09-02T02:37:51;10.20;;;9.40;;
679;SDS011;322;48.846;9.230;2022-09-02T02:40:19;10.37;;;9.47;;
679;SDS011;322;48.846;9.230;2022-09-02T02:42:49;10.60;;;9.67;;
679;SDS011;322;48.846;9.230;2022-09-02T02:45:18;10.50;;;9.40;;
679;SDS011;322;48.846;9.230;2022-09-02T02:47:46;10.57;;;9.67;;
679;SDS011;322;48.846;9.230;2022-09-02T02:50:15;10.80;;;9.63;;
679;SDS011;322;48.846;9.230;2022-09-02T02:52:43;9.70;;;8.90;;
679;SDS011;322;48.846;9.230;2022-09-02T02:55:13;11.40;;;10.27;;
679;SDS011;322;48.846;9.230;2022-09-02T02:57:41;10.43;;;9.53;;
679;SDS011;322;48.846;9.230;2022-09-02T03:00:09;11.00;;;10.00;;
679;SDS011;322;48.846;9.230;2022-09-02T03:02:38;10.80;;;9.80;;
679;SDS011;322;48.846;9.230;2022-09-02T03:05:07;10.30;;;9.30;;
679;SDS011;322;48.846;9.230;2022-09-02T03:07:34;10.37;;;9.43;;
679;SDS011;322;48.846;9.230;2022-09-02T03:10:01;10.03;;;9.20;;
679;SDS011;322;48.846;9.230;2022-09-02T03:12:29;11.10;;;10.10;;
679;SDS011;322;48.846;9.230;2022-09-02T03:14:57;10.60;;;9.77;;
679;SDS011;322;48.846;9.230;2022-09-02T03:17:24;11.30;;;10.30;;
679;SDS011;322;48.846;9.230;2022-09-02T03:19:51;10.80;;;9.80;;
679;SDS011;322;48.846;9.230;2022-09-02T03:22:19;10.60;;;9.67;;
679;SDS011;322;48.846;9.230;2022-09-02T03:24:46;11.57;;;10.40;;
679;SDS011;322;48.846;9.230;2022-09-02T03:27:13;11.37;;;10.40;;
679;SDS011;322;48.846;9.230;2022-09-02T03:29:40;11.93;;;10.93;;
679;SDS011;322;48.846;9.230;2022-09-02T03:32:08;11.23;;;10.33;;
679;SDS011;322;48.846;9.230;2022-09-02T03:34:35;11.20;;;9.70;;
679;SDS011;322;48.846;9.230;2022-09-02T03:37:02;12.80;;;11.40;;
679;SDS011;322;48.846;9.230;2022-09-02T03:39:30;11.47;;;10.37;;
679;SDS011;322;48.846;9.230;2022-09-02T03:41:57;10.67;;;9.67;;
679;SDS011;322;48.846;9.230;2022-09-02T03:44:24;9.67;;;8.87;;
679;SDS011;322;48.846;9.230;2022-09-02T03:46:50;11.57;;;10.47;;
679;SDS011;322;48.846;9.230;2022-09-02T03:49:17;10.67;;;9.67;;
679;SDS011;322;48.846;9.230;2022-09-02T03:51:44;11.13;;;10.00;;
679;SDS011;322;48.846;9.230;2022-09-02T03:54:11;10.10;;;9.20;;
679;SDS011;322;48.846;9.230;2022-09-02T03:56:39;10.70;;;9.80;;
679;SDS011;322;48.846;9.230;2022-09-02T03:59:06;10.60;;;9.70;;
679;SDS011;322;48.846;9.230;2022-09-02T04:01:33;10.40;;;9.40;;
679;SDS011;322;48.846;9.230;2022-09-02T04:04:00;11.10;;;10.20;;
679;SDS011;322;48.846;9.230;2022-09-02T04:06:27;11.90;;;9.53;;
679;SDS011;322;48.846;9.230;2022-09-02T04:08:55;10.10;;;9.10;;
679;SDS011;322;48.846;9.230;2022-09-02T04:11:22;9.60;;;8.37;;
679;SDS011;322;48.846;9.230;2022-09-02T04:13:51;9.83;;;9.03;;
679;SDS011;322;48.846;9.230;2022-09-02T04:23:02;10.27;;;9.27;;
679;SDS011;322;48.846;9.230;2022-09-02T04:25:29;11.00;;;10.10;;
679;SDS011;322;48.846;9.230;2022-09-02T04:27:56;10.20;;;9.30;;
679;SDS011;322;48.846;9.230;2022-09-02T04:30:24;11.10;;;9.97;;
679;SDS011;322;48.846;9.230;2022-09-02T04:32:51;10.73;;;9.73;;
679;SDS011;322;48.846;9.230;2022-09-02T04:35:18;10.10;;;9.30;;
679;SDS011;322;48.846;9.230;2022-09-02T04:37:45;10.50;;;9.60;;
679;SDS011;322;48.846;9.230;2022-09-02T04:40:13;11.50;;;10.40;;
679;SDS011;322;48.846;9.230;2022-09-02T04:42:40;11.13;;;10.20;;
679;SDS011;322;48.846;9.230;2022-09-02T04:45:08;13.40;;;10.17;;
679;SDS011;322;48.846;9.230;2022-09-02T04:47:37;13.30;;;12.00;;
679;SDS011;322;48.846;9.230;2022-09-02T04:50:04;12.70;;;11.60;;
679;SDS011;322;48.846;9.230;2022-09-02T04:52:31;13.23;;;11.93;;
679;SDS011;322;48.846;9.230;2022-09-02T04:54:58;12.70;;;11.50;;
679;SDS011;322;48.846;9.230;2022-09-02T04:57:25;12.13;;;10.93;;
679;SDS011;322;48.846;9.230;2022-09-02T04:59:52;12.23;;;10.90;;
679;SDS011;322;48.846;9.230;2022-09-02T05:02:18;12.70;;;11.37;;
679;SDS011;322;48.846;9.230;2022-09-02T05:04:48;11.47;;;10.07;;
679;SDS011;322;48.846;9.230;2022-09-02T05:07:16;11.60;;;10.50;;
679;SDS011;322;48.846;9.230;2022-09-02T05:09:43;10.77;;;9.80;;
679;SDS011;322;48.846;9.230;2022-09-02T05:12:09;11.40;;;10.20;;
679;SDS011;322;48.846;9.230;2022-09-02T05:14:36;11.90;;;10.80;;
679;SDS011;322;48.846;9.230;2022-09-02T05:17:03;12.60;;;11.40;;
679;SDS011;322;48.846;9.230;2022-09-02T05:19:30;11.10;;;10.03;;
679;SDS011;322;48.846;9.230;2022-09-02T05:21:58;10.20;;;8.77;;
679;SDS011;322;48.846;9.230;2022-09-02T05:24:25;10.03;;;9.23;;
679;SDS011;322;48.846;9.230;2022-09-02T05:26:53;12.17;;;11.07;;
679;SDS011;322;48.846;9.230;2022-09-02T05:29:20;10.80;;;9.80;;
679;SDS011;322;48.846;9.230;2022-09-02T05:31:47;9.90;;;9.00;;
679;SDS011;322;48.846;9.230;2022-09-02T05:34:15;11.87;;;10.77;;
679;SDS011;322;48.846;9.230;2022-09-02T05:36:43;11.10;;;10.00;;
679;SDS011;322;48.846;9.230;2022-09-02T05:39:11;10.67;;;8.87;;
679;SDS011;322;48.846;9.230;2022-09-02T05:41:38;14.70;;;9.67;;
679;SDS011;322;48.846;9.230;2022-09-02T05:44:06;9.87;;;9.07;;
679;SDS011;322;48.846;9.230;2022-09-02T05:46:33;9.70;;;8.90;;
679;SDS011;322;48.846;9.230;2022-09-02T05:49:01;10.57;;;8.70;;
679;SDS011;322;48.846;9.230;2022-09-02T05:51:35;9.83;;;9.03;;
679;SDS011;322;48.846;9.230;2022-09-02T05:54:05;10.90;;;9.80;;
679;SDS011;322;48.846;9.230;2022-09-02T05:56:37;10.70;;;9.80;;
679;SDS011;322;48.846;9.230;2022-09-02T05:59:05;10.47;;;9.50;;
679;SDS011;322;48.846;9.230;2022-09-02T06:01:32;9.97;;;8.93;;
679;SDS011;322;48.846;9.230;2022-09-02T06:03:59;9.00;;;8.23;;
679;SDS011;322;48.846;9.230;2022-09-02T06:06:27;9.27;;;8.20;;
679;SDS011;322;48.846;9.230;2022-09-02T06:08:54;8.57;;;7.80;;
679;SDS011;322;48.846;9.230;2022-09-02T06:11:21;8.60;;;7.90;;
679;SDS011;322;48.846;9.230;2022-09-02T06:13:50;8.37;;;7.57;;
679;SDS011;322;48.846;9.230;2022-09-02T06:16:20;8.00;;;7.20;;
679;SDS011;322;48.846;9.230;2022-09-02T06:18:48;10.50;;;8.00;;
679;SDS011;322;48.846;9.230;2022-09-02T06:21:15;8.43;;;7.63;;
679;SDS011;322;48.846;9.230;2022-09-02T06:23:44;7.33;;;6.70;;
679;SDS011;322;48.846;9.230;2022-09-02T06:26:12;7.00;;;6.40;;
679;SDS011;322;48.846;9.230;2022-09-02T06:28:39;7.63;;;6.90;;
679;SDS011;322;48.846;9.230;2022-09-02T06:31:08;7.90;;;7.10;;
679;SDS011;322;48.846;9.230;2022-09-02T06:33:37;6.10;;;5.50;;
679;SDS011;322;48.846;9.230;2022-09-02T06:36:05;9.47;;;6.37;;
679;SDS011;322;48.846;9.230;2022-09-02T06:38:34;5.80;;;5.40;;
679;SDS011;322;48.846;9.230;2022-09-02T06:41:02;6.43;;;5.93;;
679;SDS011;322;48.846;9.230;2022-09-02T06:43:29;6.03;;;5.53;;
679;SDS011;322;48.846;9.230;2022-09-02T06:45:55;6.97;;;5.17;;
679;SDS011;322;48.846;9.230;2022-09-02T06:48:24;9.33;;;5.57;;
679;SDS011;322;48.846;9.230;2022-09-02T06:50:50;8.07;;;5.77;;
679;SDS011;322;48.846;9.230;2022-09-02T06:53:19;5.10;;;4.70;;
679;SDS011;322;48.846;9.230;2022-09-02T06:55:46;7.57;;;6.83;;
679;SDS011;322;48.846;9.230;2022-09-02T06:58:13;6.43;;;5.93;;
679;SDS011;322;48.846;9.230;2022-09-02T07:00:40;5.00;;;4.60;;
679;SDS011;322;48.846;9.230;2022-09-02T07:03:08;8.33;;;5.67;;
679;SDS011;322;48.846;9.230;2022-09-02T07:05:59;7.93;;;5.13;;
679;SDS011;322;48.846;9.230;2022-09-02T07:08:27;5.73;;;5.23;;
679;SDS011;322;48.846;9.230;2022-09-02T07:10:54;7.20;;;4.50;;
679;SDS011;322;48.846;9.230;2022-09-02T07:13:21;5.40;;;3.97;;
679;SDS011;322;48.846;9.230;2022-09-02T07:15:47;4.70;;;4.30;;
679;SDS011;322;48.846;9.230;2022-09-02T07:18:14;4.37;;;3.97;;
679;SDS011;322;48.846;9.230;2022-09-02T07:20:43;7.23;;;4.80;;
679;SDS011;322;48.846;9.230;2022-09-02T07:23:12;4.73;;;4.33;;
679;SDS011;322;48.846;9.230;2022-09-02T07:25:38;4.30;;;4.00;;
679;SDS011;322;48.846;9.230;2022-09-02T07:28:06;6.57;;;4.50;;
679;SDS011;322;48.846;9.230;2022-09-02T07:30:33;3.90;;;3.60;;
679;SDS011;322;48.846;9.230;2022-09-02T07:33:00;4.10;;;3.53;;
679;SDS011;322;48.846;9.230;2022-09-02T07:35:28;4.13;;;3.83;;
679;SDS011;322;48.846;9.230;2022-09-02T07:37:55;3.97;;;3.67;;
679;SDS011;322;48.846;9.230;2022-09-02T07:40:23;3.77;;;3.47;;
679;SDS011;322;48.846;9.230;2022-09-02T07:42:50;4.70;;;3.07;;
679;SDS011;322;48.846;9.230;2022-09-02T07:45:17;3.90;;;3.50;;
679;SDS011;322;48.846;9.230;2022-09-02T07:47:44;4.17;;;3.60;;
679;SDS011;322;48.846;9.230;2022-09-02T07:50:12;3.93;;;3.30;;
679;SDS011;322;48.846;9.230;2022-09-02T07:52:40;4.47;;;3.77;;
679;SDS011;322;48.846;9.230;2022-09-02T07:55:07;3.90;;;3.50;;
679;SDS011;322;48.846;9.230;2022-09-02T07:57:36;4.07;;;3.73;;
679;SDS011;322;48.846;9.230;2022-09-02T08:00:04;6.37;;;3.33;;
679;SDS011;322;48.846;9.230;2022-09-02T08:02:31;3.80;;;3.50;;
679;SDS011;322;48.846;9.230;2022-09-02T08:04:58;3.90;;;3.53;;
679;SDS011;322;48.846;9.230;2022-09-02T08:07:26;4.30;;;3.00;;
679;SDS011;322;48.846;9.230;2022-09-02T08:09:53;4.17;;;3.30;;
679;SDS011;322;48.846;9.230;2022-09-02T08:12:20;4.67;;;2.87;;
679;SDS011;322;48.846;9.230;2022-09-02T08:14:48;3.63;;;2.90;;
679;SDS011;322;48.846;9.230;2022-09-02T08:17:15;3.63;;;2.93;;
679;SDS011;322;48.846;9.230;2022-09-02T08:19:42;4.13;;;3.73;;
679;SDS011;322;48.846;9.230;2022-09-02T08:22:09;3.27;;;2.83;;
679;SDS011;322;48.846;9.230;2022-09-02T08:24:36;2.63;;;2.40;;
679;SDS011;322;48.846;9.230;2022-09-02T08:27:03;6.23;;;4.13;;
679;SDS011;322;48.846;9.230;2022-09-02T08:29:30;3.23;;;2.30;;
679;SDS011;322;48.846;9.230;2022-09-02T08:31:59;5.47;;;2.77;;
679;SDS011;322;48.846;9.230;2022-09-02T08:34:26;3.27;;;2.97;;
679;SDS011;322;48.846;9.230;2022-09-02T08:36:53;4.10;;;2.40;;
679;SDS011;322;48.846;9.230;2022-09-02T08:39:21;2.90;;;2.57;;
679;SDS011;322;48.846;9.230;2022-09-02T08:41:50;2.83;;;2.20;;
679;SDS011;322;48.846;9.230;2022-09-02T08:44:26;2.70;;;2.50;;
679;SDS011;322;48.846;9.230;2022-09-02T08:46:55;8.73;;;2.90;;
679;SDS011;322;48.846;9.230;2022-09-02T08:49:28;4.33;;;2.47;;
679;SDS011;322;48.846;9.230;2022-09-02T08:52:00;2.50;;;2.30;;
679;SDS011;322;48.846;9.230;2022-09-02T08:54:29;3.03;;;2.23;;
679;SDS011;322;48.846;9.230;2022-09-02T08:57:01;4.40;;;2.20;;
679;SDS011;322;48.846;9.230;2022-09-02T08:59:29;2.33;;;2.13;;
679;SDS011;322;48.846;9.230;2022-09-02T09:01:58;3.23;;;2.40;;
679;SDS011;322;48.846;9.230;2022-09-02T09:04:36;3.40;;;2.33;;
679;SDS011;322;48.846;9.230;2022-09-02T09:07:19;2.30;;;2.10;;
679;SDS011;322;48.846;9.230;2022-09-02T09:10:00;2.63;;;2.27;;
679;SDS011;322;48.846;9.230;2022-09-02T09:12:36;2.30;;;2.10;;
679;SDS011;322;48.846;9.230;2022-09-02T09:15:18;1.80;;;1.70;;
679;SDS011;322;48.846;9.230;2022-09-02T09:17:55;2.20;;;2.00;;
679;SDS011;322;48.846;9.230;2022-09-02T09:20:26;4.37;;;1.97;;
679;SDS011;322;48.846;9.230;2022-09-02T09:22:57;2.70;;;2.20;;
679;SDS011;322;48.846;9.230;2022-09-02T09:25:26;3.73;;;1.70;;
679;SDS011;322;48.846;9.230;2022-09-02T09:27:54;3.33;;;2.27;;
679;SDS011;322;48.846;9.230;2022-09-02T09:30:22;2.53;;;2.23;;
679;SDS011;322;48.846;9.230;2022-09-02T09:32:49;3.10;;;1.80;;
679;SDS011;322;48.846;9.230;2022-09-02T09:35:19;2.87;;;1.90;;
679;SDS011;322;48.846;9.230;2022-09-02T09:37:48;2.20;;;1.60;;
679;SDS011;322;48.846;9.230;2022-09-02T09:40:20;2.50;;;2.20;;
679;SDS011;322;48.846;9.230;2022-09-02T09:42:53;3.50;;;2.00;;
679;SDS011;322;48.846;9.230;2022-09-02T09:45:26;4.97;;;1.63;;
679;SDS011;322;48.846;9.230;2022-09-02T09:48:05;3.90;;;1.60;;
679;SDS011;322;48.846;9.230;2022-09-02T09:50:41;2.73;;;1.43;;
679;SDS011;322;48.846;9.230;2022-09-02T09:53:17;2.20;;;1.70;;
679;SDS011;322;48.846;9.230;2022-09-02T09:55:50;5.50;;;1.60;;
679;SDS011;322;48.846;9.230;2022-09-02T09:58:18;4.73;;;1.60;;
679;SDS011;322;48.846;9.230;2022-09-02T10:00:47;1.50;;;1.40;;
679;SDS011;322;48.846;9.230;2022-09-02T10:03:19;3.30;;;1.60;;
679;SDS011;322;48.846;9.230;2022-09-02T10:05:48;1.97;;;1.67;;
679;SDS011;322;48.846;9.230;2022-09-02T10:08:21;2.97;;;1.70;;
679;SDS011;322;48.846;9.230;2022-09-02T10:10:54;3.33;;;1.57;;
679;SDS011;322;48.846;9.230;2022-09-02T10:13:23;1.83;;;1.43;;
679;SDS011;322;48.846;9.230;2022-09-02T10:15:57;4.67;;;2.20;;
679;SDS011;322;48.846;9.230;2022-09-02T10:18:38;4.10;;;1.60;;
679;SDS011;322;48.846;9.230;2022-09-02T10:21:11;4.50;;;1.70;;
679;SDS011;322;48.846;9.230;2022-09-02T10:23:50;5.07;;;2.10;;
679;SDS011;322;48.846;9.230;2022-09-02T10:26:26;1.87;;;1.50;;
679;SDS011;322;48.846;9.230;2022-09-02T10:29:08;3.80;;;1.60;;
679;SDS011;322;48.846;9.230;2022-09-02T10:32:08;2.33;;;2.00;;
679;SDS011;322;48.846;9.230;2022-09-02T10:34:53;1.93;;;1.20;;
679;SDS011;322;48.846;9.230;2022-09-02T10:37:29;2.27;;;1.57;;
679;SDS011;322;48.846;9.230;2022-09-02T10:40:07;4.20;;;1.60;;
679;SDS011;322;48.846;9.230;2022-09-02T10:42:39;1.63;;;1.30;;
679;SDS011;322;48.846;9.230;2022-09-02T10:45:28;1.30;;;1.20;;
679;SDS011;322;48.846;9.230;2022-09-02T10:48:04;2.73;;;1.50;;
679;SDS011;322;48.846;9.230;2022-09-02T10:50:42;8.80;;;1.70;;
679;SDS011;322;48.846;9.230;2022-09-02T10:53:20;1.80;;;1.50;;
679;SDS011;322;48.846;9.230;2022-09-02T10:55:57;3.73;;;1.50;;
679;SDS011;322;48.846;9.230;2022-09-02T10:58:30;2.00;;;1.63;;
679;SDS011;322;48.846;9.230;2022-09-02T11:01:07;2.03;;;1.37;;
679;SDS011;322;48.846;9.230;2022-09-02T11:03:41;2.43;;;1.17;;
679;SDS011;322;48.846;9.230;2022-09-02T11:06:18;1.63;;;1.30;;
679;SDS011;322;48.846;9.230;2022-09-02T11:08:48;2.40;;;1.27;;
679;SDS011;322;48.846;9.230;2022-09-02T11:11:21;2.30;;;1.30;;
679;SDS011;322;48.846;9.230;2022-09-02T11:13:57;1.70;;;1.40;;
679;SDS011;322;48.846;9.230;2022-09-02T11:16:30;1.60;;;1.20;;
679;SDS011;322;48.846;9.230;2022-09-02T11:19:04;1.60;;;1.20;;
679;SDS011;322;48.846;9.230;2022-09-02T11:21:41;1.80;;;1.47;;
679;SDS011;322;48.846;9.230;2022-09-02T11:24:18;1.40;;;1.30;;
679;SDS011;322;48.846;9.230;2022-09-02T11:26:52;1.60;;;1.30;;
679;SDS011;322;48.846;9.230;2022-09-02T11:29:28;1.63;;;1.33;;
679;SDS011;322;48.846;9.230;2022-09-02T11:32:01;1.60;;;1.30;;
679;SDS011;322;48.846;9.230;2022-09-02T11:34:35;2.30;;;1.50;;
679;SDS011;322;48.846;9.230;2022-09-02T11:37:05;2.27;;;1.00;;
679;SDS011;322;48.846;9.230;2022-09-02T11:39:37;1.30;;;1.10;;
679;SDS011;322;48.846;9.230;2022-09-02T11:42:12;4.07;;;1.43;;
679;SDS011;322;48.846;9.230;2022-09-02T11:51:00;1.60;;;1.30;;
679;SDS011;322;48.846;9.230;2022-09-02T11:53:36;1.60;;;1.10;;
679;SDS011;322;48.846;9.230;2022-09-02T11:56:07;1.70;;;1.30;;
679;SDS011;322;48.846;9.230;2022-09-02T11:58:39;2.43;;;1.60;;
679;SDS011;322;48.846;9.230;2022-09-02T12:01:27;3.00;;;1.47;;
679;SDS011;322;48.846;9.230;2022-09-02T12:03:57;2.50;;;1.43;;
679;SDS011;322;48.846;9.230;2022-09-02T12:06:26;3.10;;;1.47;;
679;SDS011;322;48.846;9.230;2022-09-02T12:11:37;1.27;;;1.07;;
679;SDS011;322;48.846;9.230;2022-09-02T12:14:07;3.80;;;1.20;;
679;SDS011;322;48.846;9.230;2022-09-02T12:16:41;3.10;;;1.27;;
679;SDS011;322;48.846;9.230;2022-09-02T12:19:16;2.87;;;1.30;;
679;SDS011;322;48.846;9.230;2022-09-02T12:24:57;1.90;;;1.40;;
679;SDS011;322;48.846;9.230;2022-09-02T12:27:26;3.07;;;1.53;;
679;SDS011;322;48.846;9.230;2022-09-02T12:29:55;2.10;;;1.33;;
679;SDS011;322;48.846;9.230;2022-09-02T12:35:30;1.70;;;1.23;;
679;SDS011;322;48.846;9.230;2022-09-02T12:40:57;2.40;;;1.37;;
679;SDS011;322;48.846;9.230;2022-09-02T12:43:39;2.30;;;1.20;;
679;SDS011;322;48.846;9.230;2022-09-02T12:46:17;2.40;;;1.33;;
679;SDS011;322;48.846;9.230;2022-09-02T12:48:49;2.27;;;1.30;;
679;SDS011;322;48.846;9.230;2022-09-02T12:54:20;1.80;;;1.30;;
679;SDS011;322;48.846;9.230;2022-09-02T12:56:50;6.70;;;1.77;;
679;SDS011;322;48.846;9.230;2022-09-02T12:59:24;6.20;;;1.53;;
679;SDS011;322;48.846;9.230;2022-09-02T13:02:00;1.60;;;1.30;;
679;SDS011;322;48.846;9.230;2022-09-02T13:04:37;2.10;;;1.00;;
679;SDS011;322;48.846;9.230;2022-09-02T13:10:31;1.60;;;1.20;;
679;SDS011;322;48.846;9.230;2022-09-02T13:13:34;1.60;;;1.40;;
679;SDS011;322;48.846;9.230;2022-09-02T13:16:21;1.80;;;1.40;;
679;SDS011;322;48.846;9.230;2022-09-02T13:19:11;3.13;;;1.17;;
679;SDS011;322;48.846;9.230;2022-09-02T13:21:56;1.40;;;1.10;;
679;SDS011;322;48.846;9.230;2022-09-02T13:24:48;1.80;;;1.40;;
679;SDS011;322;48.846;9.230;2022-09-02T13:27:44;2.43;;;1.60;;
679;SDS011;322;48.846;9.230;2022-09-02T13:30:27;1.30;;;1.10;;
679;SDS011;322;48.846;9.230;2022-09-02T13:33:07;2.60;;;1.40;;
679;SDS011;322;48.846;9.230;2022-09-02T13:35:37;2.20;;;1.43;;
679;SDS011;322;48.846;9.230;2022-09-02T13:38:07;1.10;;;1.00;;
679;SDS011;322;48.846;9.230;2022-09-02T13:40:36;1.70;;;1.43;;
679;SDS011;322;48.846;9.230;2022-09-02T13:43:15;2.60;;;1.40;;
679;SDS011;322;48.846;9.230;2022-09-02T13:45:43;1.43;;;1.33;;
679;SDS011;322;48.846;9.230;2022-09-02T13:48:13;1.70;;;1.40;;
679;SDS011;322;48.846;9.230;2022-09-02T13:50:43;2.03;;;1.37;;
679;SDS011;322;48.846;9.230;2022-09-02T13:53:12;3.43;;;1.47;;
679;SDS011;322;48.846;9.230;2022-09-02T13:55:46;1.40;;;1.30;;
679;SDS011;322;48.846;9.230;2022-09-02T13:58:21;2.43;;;1.50;;
679;SDS011;322;48.846;9.230;2022-09-02T14:00:57;1.73;;;1.43;;
679;SDS011;322;48.846;9.230;2022-09-02T14:03:43;1.83;;;1.40;;
679;SDS011;322;48.846;9.230;2022-09-02T14:06:13;2.07;;;1.30;;
679;SDS011;322;48.846;9.230;2022-09-02T14:08:41;2.73;;;1.50;;
679;SDS011;322;48.846;9.230;2022-09-02T14:11:12;2.23;;;1.27;;
679;SDS011;322;48.846;9.230;2022-09-02T14:13:41;1.60;;;1.10;;
679;SDS011;322;48.846;9.230;2022-09-02T14:16:25;1.70;;;1.10;;
679;SDS011;322;48.846;9.230;2022-09-02T14:19:02;3.30;;;1.50;;
679;SDS011;322;48.846;9.230;2022-09-02T14:21:47;2.30;;;1.50;;
679;SDS011;322;48.846;9.230;2022-09-02T14:24:18;1.97;;;1.60;;
679;SDS011;322;48.846;9.230;2022-09-02T14:26:47;2.70;;;1.30;;
679;SDS011;322;48.846;9.230;2022-09-02T14:29:16;1.30;;;1.20;;
679;SDS011;322;48.846;9.230;2022-09-02T14:31:45;1.53;;;1.40;;
679;SDS011;322;48.846;9.230;2022-09-02T14:34:31;2.10;;;1.40;;
679;SDS011;322;48.846;9.230;2022-09-02T14:37:01;2.70;;;1.40;;
679;SDS011;322;48.846;9.230;2022-09-02T14:39:50;2.03;;;1.37;;
679;SDS011;322;48.846;9.230;2022-09-02T14:42:41;2.50;;;1.57;;
679;SDS011;322;48.846;9.230;2022-09-02T14:45:09;1.60;;;1.27;;
679;SDS011;322;48.846;9.230;2022-09-02T14:47:37;1.93;;;1.40;;
679;SDS011;322;48.846;9.230;2022-09-02T14:50:08;1.70;;;1.57;;
679;SDS011;322;48.846;9.230;2022-09-02T14:52:44;3.83;;;1.93;;
679;SDS011;322;48.846;9.230;2022-09-02T14:58:08;2.70;;;1.40;;
679;SDS011;322;48.846;9.230;2022-09-02T15:00:35;2.57;;;1.50;;
679;SDS011;322;48.846;9.230;2022-09-02T15:03:03;1.93;;;1.30;;
679;SDS011;322;48.846;9.230;2022-09-02T15:05:31;1.83;;;1.30;;
679;SDS011;322;48.846;9.230;2022-09-02T15:07:59;2.70;;;1.40;;
679;SDS011;322;48.846;9.230;2022-09-02T15:10:26;2.63;;;1.60;;
679;SDS011;322;48.846;9.230;2022-09-02T15:12:54;1.73;;;1.37;;
679;SDS011;322;48.846;9.230;2022-09-02T15:15:22;2.33;;;1.30;;
679;SDS011;322;48.846;9.230;2022-09-02T15:17:49;1.63;;;1.30;;
679;SDS011;322;48.846;9.230;2022-09-02T15:20:16;3.40;;;1.60;;
679;SDS011;322;48.846;9.230;2022-09-02T15:22:43;1.50;;;1.40;;
679;SDS011;322;48.846;9.230;2022-09-02T15:25:11;1.60;;;1.27;;
679;SDS011;322;48.846;9.230;2022-09-02T15:27:39;2.47;;;2.00;;
679;SDS011;322;48.846;9.230;2022-09-02T15:30:06;3.47;;;1.43;;
679;SDS011;322;48.846;9.230;2022-09-02T15:32:34;1.67;;;1.40;;
679;SDS011;322;48.846;9.230;2022-09-02T15:35:00;1.80;;;1.10;;
679;SDS011;322;48.846;9.230;2022-09-02T15:37:27;1.30;;;1.20;;
679;SDS011;322;48.846;9.230;2022-09-02T15:39:54;1.63;;;1.40;;
679;SDS011;322;48.846;9.230;2022-09-02T15:42:22;1.40;;;1.30;;
679;SDS011;322;48.846;9.230;2022-09-02T15:44:49;2.00;;;1.80;;
679;SDS011;322;48.846;9.230;2022-09-02T15:47:16;2.13;;;1.70;;
679;SDS011;322;48.846;9.230;2022-09-02T15:49:43;4.10;;;1.70;;
679;SDS011;322;48.846;9.230;2022-09-02T15:52:09;2.67;;;1.40;;
679;SDS011;322;48.846;9.230;2022-09-02T15:54:36;2.13;;;1.53;;
679;SDS011;322;48.846;9.230;2022-09-02T15:57:03;1.87;;;1.20;;
679;SDS011;322;48.846;9.230;2022-09-02T15:59:32;4.60;;;1.40;;
679;SDS011;322;48.846;9.230;2022-09-02T16:01:58;1.97;;;1.57;;
679;SDS011;322;48.846;9.230;2022-09-02T16:04:26;2.50;;;1.70;;
679;SDS011;322;48.846;9.230;2022-09-02T16:06:53;3.30;;;2.00;;
679;SDS011;322;48.846;9.230;2022-09-02T16:09:20;3.40;;;1.60;;
679;SDS011;322;48.846;9.230;2022-09-02T16:11:47;2.87;;;1.83;;
679;SDS011;322;48.846;9.230;2022-09-02T16:14:15;3.80;;;1.80;;
679;SDS011;322;48.846;9.230;2022-09-02T16:16:44;3.87;;;1.73;;
679;SDS011;322;48.846;9.230;2022-09-02T16:19:11;2.57;;;1.60;;
679;SDS011;322;48.846;9.230;2022-09-02T16:21:38;6.50;;;2.10;;
679;SDS011;322;48.846;9.230;2022-09-02T16:24:06;9.37;;;3.03;;
679;SDS011;322;48.846;9.230;2022-09-02T16:26:34;3.87;;;2.13;;
679;SDS011;322;48.846;9.230;2022-09-02T16:29:03;5.13;;;1.90;;
679;SDS011;322;48.846;9.230;2022-09-02T16:31:31;4.83;;;1.70;;
679;SDS011;322;48.846;9.230;2022-09-02T16:34:01;4.67;;;2.20;;